Time;durP1;ratioP1;P1;durP2;ratioP2;P2;SDS_P1;SDS_P2;PMS_P1;PMS_P2;Temp;Humidity;BMP_temperature;BMP_pressure;BME280_temperature;BME280_humidity;BME280_pressure;Samples;Min_cycle;Max_cycle;Signal;HPM_P1;HPM_P2
2022/12/25 00:01:11;;;;;;;;;;;11.00;61.80;;;;;;5012350;28;19909;-89
2022/12/25 00:03:36;;;;;;;;;;;11.00;61.80;;;;;;5011348;28;20266;-89
2022/12/25 00:06:02;;;;;;;;;;;11.00;61.70;;;;;;5014897;28;19910;-90
2022/12/25 00:08:27;;;;;;;;;;;10.90;61.60;;;;;;5013008;28;20020;-89
2022/12/25 00:11:00;;;;;;;;;;;10.90;61.50;;;;;;5013614;28;19925;-90
2022/12/25 00:13:26;;;;;;;;;;;10.80;61.50;;;;;;5013563;28;19945;-88
2022/12/25 00:15:52;;;;;;;;;;;10.80;61.50;;;;;;5012894;28;19917;-89
2022/12/25 00:18:26;;;;;;;;;;;10.80;61.60;;;;;;5015263;28;19979;-88
2022/12/25 00:20:58;;;;;;;;;;;10.80;61.70;;;;;;5013129;28;19920;-89
2022/12/25 00:23:24;;;;;;;;;;;10.90;62.10;;;;;;5011491;28;20008;-88
2022/12/25 00:25:49;;;;;;;;;;;11.00;62.50;;;;;;5013634;28;20019;-88
2022/12/25 00:28:15;;;;;;;;;;;11.20;62.80;;;;;;5013027;28;19944;-90
2022/12/25 00:30:40;;;;;;;;;;;11.30;62.90;;;;;;5014732;28;19921;-89
2022/12/25 00:33:06;;;;;;;;;;;11.40;62.90;;;;;;5012851;28;19921;-89
2022/12/25 00:35:32;;;;;;;;;;;11.50;62.90;;;;;;5011596;28;19964;-89
2022/12/25 00:37:58;;;;;;;;;;;11.60;62.80;;;;;;5013125;28;19918;-90
2022/12/25 00:40:23;;;;;;;;;;;11.60;62.70;;;;;;5017350;28;20493;-89
2022/12/25 00:42:49;;;;;;;;;;;11.60;62.50;;;;;;5011664;28;20376;-89
2022/12/25 00:45:14;;;;;;;;;;;11.50;62.20;;;;;;5012752;28;19910;-89
2022/12/25 00:47:39;;;;;;;;;;;11.40;62.10;;;;;;5012379;28;20307;-89
2022/12/25 00:50:05;;;;;;;;;;;11.30;62.00;;;;;;5011102;28;19940;-88
2022/12/25 00:52:31;;;;;;;;;;;11.30;62.00;;;;;;5012695;28;20349;-88
2022/12/25 00:54:56;;;;;;;;;;;11.20;61.80;;;;;;5011374;28;19918;-90
2022/12/25 00:57:22;;;;;;;;;;;11.20;62.00;;;;;;5012893;28;19913;-90
2022/12/25 00:59:47;;;;;;;;;;;11.20;62.10;;;;;;5016611;28;19909;-89
2022/12/25 01:02:22;;;;;;;;;;;11.20;62.30;;;;;;5015119;28;19913;-89
2022/12/25 01:04:48;;;;;;;;;;;11.20;62.50;;;;;;5014704;28;20249;-89
2022/12/25 01:07:15;;;;;;;;;;;11.30;62.60;;;;;;5012214;28;20376;-89
2022/12/25 01:12:25;;;;;;;;;;;11.50;62.70;;;;;;5013290;28;20024;-89
2022/12/25 01:14:50;;;;;;;;;;;11.60;62.80;;;;;;5013925;28;20014;-88
2022/12/25 01:17:16;;;;;;;;;;;11.70;62.90;;;;;;5011586;28;19956;-90
2022/12/25 01:19:41;;;;;;;;;;;11.80;63.30;;;;;;5012534;28;19933;-88
2022/12/25 01:22:07;;;;;;;;;;;11.90;63.50;;;;;;5011919;28;20364;-89
2022/12/25 01:24:32;;;;;;;;;;;12.00;63.60;;;;;;5012813;28;19928;-88
2022/12/25 01:26:57;;;;;;;;;;;12.10;63.70;;;;;;5014070;28;19913;-88
2022/12/25 01:29:23;;;;;;;;;;;12.20;63.70;;;;;;5012806;28;19936;-88
2022/12/25 01:31:48;;;;;;;;;;;12.30;63.80;;;;;;5012072;28;19913;-87
2022/12/25 01:34:14;;;;;;;;;;;12.40;63.70;;;;;;5013620;28;20368;-89
2022/12/25 01:36:39;;;;;;;;;;;12.40;63.60;;;;;;5013394;28;19989;-89
2022/12/25 01:39:05;;;;;;;;;;;12.50;63.50;;;;;;5016450;28;19914;-88
2022/12/25 01:41:30;;;;;;;;;;;12.50;63.50;;;;;;5013448;28;20371;-90
2022/12/25 01:43:55;;;;;;;;;;;12.60;63.70;;;;;;5013010;28;19914;-89
2022/12/25 01:46:21;;;;;;;;;;;12.60;63.80;;;;;;5015636;28;19968;-90
2022/12/25 01:48:46;;;;;;;;;;;12.70;63.90;;;;;;5014525;28;19971;-89
2022/12/25 01:51:28;;;;;;;;;;;12.70;63.90;;;;;;5012497;28;20486;-90
2022/12/25 01:53:56;;;;;;;;;;;12.80;63.90;;;;;;5016691;28;19921;-89
2022/12/25 01:56:23;;;;;;;;;;;12.90;64.00;;;;;;5014759;28;19909;-88
2022/12/25 01:58:49;;;;;;;;;;;13.00;63.80;;;;;;5015749;28;19961;-89
2022/12/25 02:01:14;;;;;;;;;;;13.00;63.80;;;;;;5015172;28;19940;-88
2022/12/25 02:03:41;;;;;;;;;;;13.00;63.80;;;;;;5015732;28;19925;-88
2022/12/25 02:06:07;;;;;;;;;;;13.10;63.60;;;;;;5018825;28;19917;-90
2022/12/25 02:08:32;;;;;;;;;;;13.10;63.50;;;;;;5015567;28;19917;-88
2022/12/25 02:10:58;;;;;;;;;;;13.20;63.40;;;;;;5013552;28;19917;-90
2022/12/25 02:13:23;;;;;;;;;;;13.20;63.30;;;;;;5015371;28;19975;-88
2022/12/25 02:16:11;;;;;;;;;;;13.20;63.00;;;;;;5013622;28;19924;-89
2022/12/25 02:18:36;;;;;;;;;;;13.20;62.90;;;;;;5015736;28;19922;-89
2022/12/25 02:21:07;;;;;;;;;;;13.20;62.90;;;;;;5015285;28;19909;-88
2022/12/25 02:23:48;;;;;;;;;;;13.20;62.90;;;;;;5014342;28;19922;-88
2022/12/25 02:26:14;;;;;;;;;;;13.20;63.00;;;;;;5015528;28;19916;-89
2022/12/25 02:28:54;;;;;;;;;;;13.20;63.00;;;;;;5016099;28;19918;-89
2022/12/25 02:31:24;;;;;;;;;;;13.20;63.10;;;;;;5016422;28;19924;-89
2022/12/25 02:34:03;;;;;;;;;;;13.30;63.20;;;;;;5013053;28;20427;-88
2022/12/25 02:36:33;;;;;;;;;;;13.20;63.10;;;;;;5016156;28;19909;-89
2022/12/25 02:41:44;;;;;;;;;;;13.20;63.10;;;;;;5016365;28;19956;-88
2022/12/25 03:11:53;;;;;;;;;;;13.30;62.80;;;;;;5015019;28;19928;-89
2022/12/25 03:17:02;;;;;;;;;;;13.20;62.50;;;;;;5015423;28;20013;-89
2022/12/25 03:27:53;;;;;;;;;;;13.00;62.70;;;;;;5015848;28;20052;-89
2022/12/25 03:33:09;;;;;;;;;;;13.00;62.80;;;;;;5015294;28;20281;-89
2022/12/25 03:35:46;;;;;;;;;;;13.00;62.80;;;;;;5014321;28;19914;-89
2022/12/25 04:36:36;;;;;;;;;;;12.80;64.40;;;;;;5013064;28;19916;-89
2022/12/25 04:39:02;;;;;;;;;;;12.80;64.40;;;;;;5011606;28;19917;-89
2022/12/25 04:41:27;;;;;;;;;;;12.80;64.30;;;;;;5011423;28;19914;-90
2022/12/25 04:43:52;;;;;;;;;;;12.80;64.30;;;;;;5012375;28;20420;-87
2022/12/25 04:46:18;;;;;;;;;;;12.80;64.20;;;;;;5011375;28;19917;-87
2022/12/25 04:48:43;;;;;;;;;;;12.70;64.30;;;;;;5010894;28;19918;-87
2022/12/25 04:51:19;;;;;;;;;;;12.70;64.30;;;;;;5012159;28;19957;-88
2022/12/25 04:53:45;;;;;;;;;;;12.70;64.30;;;;;;5012262;28;19921;-90
2022/12/25 04:56:11;;;;;;;;;;;12.70;64.30;;;;;;5013313;28;19968;-88
2022/12/25 04:58:36;;;;;;;;;;;12.70;64.40;;;;;;5010709;28;19960;-88
2022/12/25 05:01:02;;;;;;;;;;;12.70;64.30;;;;;;5013600;28;19921;-88
2022/12/25 05:03:28;;;;;;;;;;;12.70;64.30;;;;;;5011989;28;19921;-89
2022/12/25 05:05:54;;;;;;;;;;;12.80;64.20;;;;;;5011478;28;19913;-87
2022/12/25 05:08:19;;;;;;;;;;;12.80;64.10;;;;;;5012257;28;20281;-88
2022/12/25 05:10:45;;;;;;;;;;;12.80;64.10;;;;;;5011494;28;19936;-88
2022/12/25 05:13:10;;;;;;;;;;;12.80;64.00;;;;;;5012116;28;19917;-88
2022/12/25 05:15:38;;;;;;;;;;;12.80;64.00;;;;;;5011522;28;19967;-88
2022/12/25 05:18:03;;;;;;;;;;;12.90;63.90;;;;;;5012988;28;19913;-88
2022/12/25 05:20:29;;;;;;;;;;;12.90;64.00;;;;;;5012767;28;19913;-88
2022/12/25 05:22:54;;;;;;;;;;;13.00;64.00;;;;;;5013147;28;19959;-88
2022/12/25 05:25:20;;;;;;;;;;;13.00;64.10;;;;;;5013245;28;19920;-89
2022/12/25 05:27:45;;;;;;;;;;;13.00;64.00;;;;;;5015964;28;20020;-89
2022/12/25 05:30:11;;;;;;;;;;;13.10;64.10;;;;;;5014799;28;19929;-89
2022/12/25 05:32:36;;;;;;;;;;;13.10;63.90;;;;;;5016371;28;19917;-89
2022/12/25 05:35:02;;;;;;;;;;;13.20;63.80;;;;;;5016101;28;19952;-90
2022/12/25 05:37:27;;;;;;;;;;;13.20;63.80;;;;;;5017138;28;20375;-90
2022/12/25 05:39:53;;;;;;;;;;;13.20;63.90;;;;;;5015548;28;19913;-89
2022/12/25 05:42:18;;;;;;;;;;;13.20;63.80;;;;;;5015162;28;19921;-88
2022/12/25 05:44:44;;;;;;;;;;;13.30;63.90;;;;;;5016216;28;19971;-90
2022/12/25 05:47:09;;;;;;;;;;;13.30;63.80;;;;;;5017052;28;19897;-89
2022/12/25 05:49:34;;;;;;;;;;;13.30;63.90;;;;;;5015163;28;19917;-90
2022/12/25 05:52:00;;;;;;;;;;;13.30;63.90;;;;;;5015297;28;19921;-90
2022/12/25 05:54:25;;;;;;;;;;;13.40;63.90;;;;;;5015607;28;19980;-89
2022/12/25 05:56:51;;;;;;;;;;;13.40;63.70;;;;;;5014173;28;20426;-89
2022/12/25 05:59:16;;;;;;;;;;;13.40;63.70;;;;;;5015597;28;19918;-89
2022/12/25 06:01:42;;;;;;;;;;;13.40;63.70;;;;;;5013997;28;19996;-88
2022/12/25 06:04:07;;;;;;;;;;;13.40;63.70;;;;;;5014253;28;19913;-88
2022/12/25 06:06:33;;;;;;;;;;;13.40;63.70;;;;;;5015833;28;20024;-88
2022/12/25 06:08:58;;;;;;;;;;;13.50;63.70;;;;;;5013971;28;19920;-88
2022/12/25 06:11:24;;;;;;;;;;;13.50;63.80;;;;;;5014773;28;19921;-88
2022/12/25 06:13:50;;;;;;;;;;;13.50;63.80;;;;;;5015348;28;20012;-88
2022/12/25 06:16:16;;;;;;;;;;;13.50;63.70;;;;;;5014528;28;19917;-88
2022/12/25 06:18:42;;;;;;;;;;;13.50;63.60;;;;;;5015507;28;19921;-90
2022/12/25 06:21:09;;;;;;;;;;;13.50;63.60;;;;;;5015299;28;19996;-87
2022/12/25 06:23:35;;;;;;;;;;;13.50;63.50;;;;;;5015093;28;19914;-87
2022/12/25 06:26:05;;;;;;;;;;;13.50;63.60;;;;;;5015151;28;20435;-88
2022/12/25 06:28:30;;;;;;;;;;;13.50;63.60;;;;;;5013884;28;19963;-88
2022/12/25 06:30:56;;;;;;;;;;;13.50;63.70;;;;;;5013013;28;19921;-88
2022/12/25 06:33:21;;;;;;;;;;;13.50;63.60;;;;;;5014389;28;19913;-89
2022/12/25 06:35:47;;;;;;;;;;;13.60;63.60;;;;;;5014469;28;19913;-88
2022/12/25 06:38:12;;;;;;;;;;;13.60;63.60;;;;;;5014100;28;19913;-90
2022/12/25 06:40:38;;;;;;;;;;;13.60;63.60;;;;;;5015356;28;19914;-90
2022/12/25 06:43:04;;;;;;;;;;;13.60;63.60;;;;;;5012888;28;19924;-90
2022/12/25 06:45:29;;;;;;;;;;;13.60;63.70;;;;;;5013036;28;19914;-89
2022/12/25 06:47:54;;;;;;;;;;;13.60;63.70;;;;;;5014168;28;19914;-89
2022/12/25 06:50:20;;;;;;;;;;;13.60;63.80;;;;;;5015421;28;19951;-90
2022/12/25 06:52:45;;;;;;;;;;;13.70;63.80;;;;;;5012637;28;19965;-90
2022/12/25 06:55:11;;;;;;;;;;;13.70;63.70;;;;;;5016919;28;19944;-89
2022/12/25 06:57:36;;;;;;;;;;;13.70;63.70;;;;;;5013760;28;19961;-90
2022/12/25 07:00:02;;;;;;;;;;;13.70;63.70;;;;;;5013982;28;19914;-88
2022/12/25 07:02:28;;;;;;;;;;;13.70;63.70;;;;;;5014156;28;20339;-89
2022/12/25 07:04:53;;;;;;;;;;;13.70;63.50;;;;;;5013928;28;19960;-88
2022/12/25 07:07:20;;;;;;;;;;;13.70;63.50;;;;;;5013802;28;19960;-88
2022/12/25 07:09:45;;;;;;;;;;;13.70;63.60;;;;;;5013710;28;20385;-89
2022/12/25 07:12:18;;;;;;;;;;;13.60;63.50;;;;;;5013753;28;19913;-88
2022/12/25 07:14:47;;;;;;;;;;;13.60;63.30;;;;;;5012596;28;19945;-88
2022/12/25 07:17:13;;;;;;;;;;;13.50;63.20;;;;;;5013437;28;19964;-89
2022/12/25 07:19:38;;;;;;;;;;;13.40;63.20;;;;;;5014825;28;19913;-90
2022/12/25 07:22:04;;;;;;;;;;;13.40;63.20;;;;;;5012229;28;20367;-89
2022/12/25 07:24:29;;;;;;;;;;;13.40;63.40;;;;;;5013495;28;19936;-88
2022/12/25 07:26:55;;;;;;;;;;;13.40;63.40;;;;;;5011981;28;20245;-88
2022/12/25 07:29:20;;;;;;;;;;;13.40;63.50;;;;;;5015710;28;19914;-90
2022/12/25 07:31:46;;;;;;;;;;;13.40;63.70;;;;;;5013515;28;20387;-89
2022/12/25 07:34:11;;;;;;;;;;;13.40;63.70;;;;;;5013714;28;19924;-89
2022/12/25 07:36:37;;;;;;;;;;;13.40;63.70;;;;;;5012072;28;19956;-90
2022/12/25 07:39:02;;;;;;;;;;;13.50;63.60;;;;;;5013383;28;20376;-90
2022/12/25 07:41:28;;;;;;;;;;;13.50;63.80;;;;;;5012932;28;19914;-88
2022/12/25 07:43:53;;;;;;;;;;;13.50;63.70;;;;;;5012413;28;19914;-88
2022/12/25 07:46:19;;;;;;;;;;;13.60;63.90;;;;;;5015728;28;19914;-89
2022/12/25 07:48:45;;;;;;;;;;;13.60;64.00;;;;;;5012266;28;19939;-89
2022/12/25 07:51:11;;;;;;;;;;;13.70;64.00;;;;;;5013690;28;19922;-89
2022/12/25 07:53:37;;;;;;;;;;;13.70;64.20;;;;;;5013383;28;19996;-88
2022/12/25 07:56:04;;;;;;;;;;;13.70;64.20;;;;;;5012455;28;19948;-89
2022/12/25 07:58:30;;;;;;;;;;;13.80;64.40;;;;;;5013262;28;19964;-90
2022/12/25 08:01:00;;;;;;;;;;;13.90;64.40;;;;;;5013336;28;19964;-88
2022/12/25 08:03:26;;;;;;;;;;;13.90;64.50;;;;;;5013517;28;20388;-90
2022/12/25 08:05:51;;;;;;;;;;;14.00;64.60;;;;;;5013043;28;19917;-89
2022/12/25 08:08:17;;;;;;;;;;;14.10;64.60;;;;;;5013966;28;19929;-88
2022/12/25 08:10:46;;;;;;;;;;;14.20;64.60;;;;;;5011097;28;19921;-89
2022/12/25 08:13:12;;;;;;;;;;;14.20;64.40;;;;;;5011211;28;20023;-88
2022/12/25 08:15:39;;;;;;;;;;;14.20;64.40;;;;;;5011766;28;20360;-89
2022/12/25 08:18:04;;;;;;;;;;;14.30;64.40;;;;;;5012602;28;19925;-89
2022/12/25 08:20:29;;;;;;;;;;;14.30;64.30;;;;;;5012606;28;19914;-89
2022/12/25 08:22:55;;;;;;;;;;;14.30;64.20;;;;;;5011298;28;19914;-89
2022/12/25 08:25:21;;;;;;;;;;;14.30;64.30;;;;;;5013018;28;20345;-90
2022/12/25 08:27:46;;;;;;;;;;;14.30;64.40;;;;;;5011136;28;19922;-90
2022/12/25 08:30:12;;;;;;;;;;;14.40;64.50;;;;;;5012793;28;19921;-89
2022/12/25 08:32:37;;;;;;;;;;;14.40;64.50;;;;;;5011783;28;20032;-89
2022/12/25 08:35:03;;;;;;;;;;;14.50;64.30;;;;;;5012637;28;19983;-90
2022/12/25 08:37:29;;;;;;;;;;;14.60;64.20;;;;;;5011058;28;19920;-90
2022/12/25 08:39:54;;;;;;;;;;;14.50;64.00;;;;;;5013297;28;20345;-90
2022/12/25 08:42:19;;;;;;;;;;;14.50;63.90;;;;;;5013598;28;19921;-91
2022/12/25 08:44:45;;;;;;;;;;;14.50;63.80;;;;;;5011464;28;19910;-90
2022/12/25 08:47:11;;;;;;;;;;;14.60;63.80;;;;;;5012177;28;19913;-90
2022/12/25 08:49:36;;;;;;;;;;;14.60;63.80;;;;;;5011176;28;19917;-91
2022/12/25 08:52:01;;;;;;;;;;;14.70;63.90;;;;;;5017616;28;19968;-91
2022/12/25 08:54:27;;;;;;;;;;;14.70;64.20;;;;;;5011601;28;19910;-88
2022/12/25 08:56:52;;;;;;;;;;;14.90;64.70;;;;;;5012371;28;19997;-89
2022/12/25 08:59:18;;;;;;;;;;;15.00;64.50;;;;;;5011162;28;19914;-89
2022/12/25 09:01:43;;;;;;;;;;;15.10;64.30;;;;;;5016081;28;19921;-88
2022/12/25 09:04:09;;;;;;;;;;;15.20;64.40;;;;;;5016529;28;20008;-89
2022/12/25 09:06:34;;;;;;;;;;;15.30;64.30;;;;;;5015354;28;19921;-89
2022/12/25 09:09:00;;;;;;;;;;;15.40;64.20;;;;;;5016281;28;19941;-89
2022/12/25 09:11:25;;;;;;;;;;;15.40;64.10;;;;;;5017755;28;19922;-89
2022/12/25 09:13:51;;;;;;;;;;;15.50;64.00;;;;;;5014580;28;19924;-90
2022/12/25 09:16:18;;;;;;;;;;;15.50;64.00;;;;;;5015451;28;20276;-89
2022/12/25 09:18:44;;;;;;;;;;;15.50;64.00;;;;;;5016035;28;19914;-90
2022/12/25 09:21:11;;;;;;;;;;;15.50;63.80;;;;;;5014542;28;19914;-89
2022/12/25 09:23:36;;;;;;;;;;;15.50;63.60;;;;;;5015841;28;20482;-89
2022/12/25 09:26:03;;;;;;;;;;;15.40;63.50;;;;;;5014576;28;19913;-89
2022/12/25 09:28:29;;;;;;;;;;;15.30;63.50;;;;;;5015939;28;19922;-88
2022/12/25 09:30:55;;;;;;;;;;;15.20;63.50;;;;;;5017670;28;19972;-90
2022/12/25 09:33:21;;;;;;;;;;;15.20;63.50;;;;;;5015848;28;20298;-89
2022/12/25 09:35:57;;;;;;;;;;;15.10;63.50;;;;;;5014259;28;19909;-91
2022/12/25 09:38:23;;;;;;;;;;;15.10;63.40;;;;;;5015226;28;19918;-91
2022/12/25 09:40:57;;;;;;;;;;;15.00;63.50;;;;;;5017568;28;19937;-89
2022/12/25 09:43:24;;;;;;;;;;;15.00;63.60;;;;;;5020209;28;19918;-90
2022/12/25 09:45:49;;;;;;;;;;;15.10;63.70;;;;;;5016903;28;19910;-90
2022/12/25 09:48:15;;;;;;;;;;;15.10;63.90;;;;;;5017139;28;19922;-89
2022/12/25 09:50:52;;;;;;;;;;;15.10;63.90;;;;;;5014182;28;19918;-89
2022/12/25 09:53:17;;;;;;;;;;;15.10;63.90;;;;;;5016335;28;19932;-88
2022/12/25 09:55:58;;;;;;;;;;;15.10;64.00;;;;;;5016476;28;20241;-90
2022/12/25 09:58:24;;;;;;;;;;;15.10;64.10;;;;;;5015626;28;20325;-89
2022/12/25 10:00:54;;;;;;;;;;;15.10;64.30;;;;;;5015290;28;19909;-89
2022/12/25 10:03:40;;;;;;;;;;;15.20;64.30;;;;;;5017571;28;19918;-90
2022/12/25 10:06:15;;;;;;;;;;;15.30;64.20;;;;;;4997893;28;19909;-90
2022/12/25 10:08:59;;;;;;;;;;;15.30;64.30;;;;;;5018268;28;20280;-90
2022/12/25 10:11:43;;;;;;;;;;;15.30;64.20;;;;;;5014311;28;19924;-89
2022/12/25 10:14:11;;;;;;;;;;;15.30;64.20;;;;;;5016851;28;19957;-89
2022/12/25 10:16:43;;;;;;;;;;;15.30;64.40;;;;;;5015015;28;20018;-91
2022/12/25 10:19:09;;;;;;;;;;;15.30;64.30;;;;;;5015798;28;19961;-90
2022/12/25 10:21:34;;;;;;;;;;;15.40;64.40;;;;;;5015131;28;19964;-90
2022/12/25 10:24:00;;;;;;;;;;;15.40;64.40;;;;;;5017074;28;19917;-91
2022/12/25 10:26:25;;;;;;;;;;;15.40;64.20;;;;;;5013730;28;19909;-89
2022/12/25 10:28:54;;;;;;;;;;;15.40;64.10;;;;;;5014698;28;19983;-90
2022/12/25 10:31:21;;;;;;;;;;;15.40;64.00;;;;;;5013585;28;19925;-89
2022/12/25 10:33:48;;;;;;;;;;;15.40;64.00;;;;;;5014927;28;19957;-90
2022/12/25 10:36:16;;;;;;;;;;;15.50;64.00;;;;;;5016334;28;19960;-90
2022/12/25 10:38:42;;;;;;;;;;;15.50;64.10;;;;;;5013091;28;19917;-89
2022/12/25 10:41:18;;;;;;;;;;;15.50;64.00;;;;;;5014572;28;20345;-89
2022/12/25 10:43:52;;;;;;;;;;;15.50;64.00;;;;;;5015312;28;19917;-89
2022/12/25 10:46:18;;;;;;;;;;;15.60;64.10;;;;;;5013265;28;19913;-90
2022/12/25 10:48:51;;;;;;;;;;;15.60;64.00;;;;;;5014544;28;19941;-89
2022/12/25 10:51:28;;;;;;;;;;;15.60;64.00;;;;;;5015301;28;19922;-90
2022/12/25 10:53:53;;;;;;;;;;;15.60;64.00;;;;;;5013973;28;19983;-88
2022/12/25 10:56:19;;;;;;;;;;;15.70;64.00;;;;;;5015910;28;19913;-90
2022/12/25 10:58:44;;;;;;;;;;;15.70;64.00;;;;;;5012769;28;20004;-89
2022/12/25 11:01:10;;;;;;;;;;;15.70;63.90;;;;;;5014167;28;19925;-90
2022/12/25 11:03:38;;;;;;;;;;;15.60;63.90;;;;;;5012429;28;20376;-88
2022/12/25 11:06:05;;;;;;;;;;;15.60;63.80;;;;;;5014696;28;20375;-89
2022/12/25 11:08:32;;;;;;;;;;;15.50;64.00;;;;;;5012337;28;19914;-89
2022/12/25 11:11:10;;;;;;;;;;;15.40;64.00;;;;;;5012981;28;19922;-89
2022/12/25 11:13:38;;;;;;;;;;;15.30;64.10;;;;;;5013012;28;19956;-91
2022/12/25 11:16:24;;;;;;;;;;;15.30;64.30;;;;;;5014222;28;19913;-89
2022/12/25 11:18:51;;;;;;;;;;;15.20;64.60;;;;;;5012639;28;19913;-89
2022/12/25 11:21:17;;;;;;;;;;;15.20;64.60;;;;;;5015130;28;19962;-88
2022/12/25 11:23:47;;;;;;;;;;;15.20;64.80;;;;;;5014292;28;19914;-90
2022/12/25 11:26:13;;;;;;;;;;;15.20;65.10;;;;;;5012285;28;19976;-92
2022/12/25 11:28:40;;;;;;;;;;;15.20;65.30;;;;;;5012849;28;19960;-90
2022/12/25 11:31:14;;;;;;;;;;;15.20;65.40;;;;;;5016017;28;19929;-91
2022/12/25 11:33:43;;;;;;;;;;;15.20;65.50;;;;;;5012176;28;19913;-90
2022/12/25 11:36:21;;;;;;;;;;;15.20;65.60;;;;;;5012427;28;19921;-90
2022/12/25 11:38:47;;;;;;;;;;;15.30;65.70;;;;;;5012565;28;19923;-89
2022/12/25 11:41:19;;;;;;;;;;;15.30;65.80;;;;;;5013801;28;20507;-89
2022/12/25 11:43:54;;;;;;;;;;;15.30;66.00;;;;;;5014250;28;19921;-91
2022/12/25 11:46:26;;;;;;;;;;;15.30;66.00;;;;;;5013696;28;20008;-91
2022/12/25 11:49:04;;;;;;;;;;;15.30;66.00;;;;;;5013377;28;19963;-89
2022/12/25 11:51:32;;;;;;;;;;;15.40;66.00;;;;;;5020666;28;20290;-89
2022/12/25 11:53:59;;;;;;;;;;;15.40;66.10;;;;;;5013086;28;19924;-90
2022/12/25 11:56:29;;;;;;;;;;;15.50;66.20;;;;;;5013142;28;19913;-89
2022/12/25 11:59:01;;;;;;;;;;;15.40;66.00;;;;;;5012308;28;19921;-87
2022/12/25 12:01:29;;;;;;;;;;;15.50;66.00;;;;;;5012985;28;20401;-92
2022/12/25 12:03:56;;;;;;;;;;;15.50;66.00;;;;;;5013986;28;19917;-92
2022/12/25 12:06:24;;;;;;;;;;;15.50;65.90;;;;;;5012454;28;19916;-88
2022/12/25 12:08:52;;;;;;;;;;;15.50;65.80;;;;;;5011819;28;19941;-91
2022/12/25 12:11:20;;;;;;;;;;;15.60;65.90;;;;;;5011925;28;19921;-92
2022/12/25 12:14:03;;;;;;;;;;;15.60;65.90;;;;;;5013338;28;19963;-92
2022/12/25 12:16:29;;;;;;;;;;;15.60;65.80;;;;;;5012418;28;19913;-89
2022/12/25 12:18:55;;;;;;;;;;;15.50;65.70;;;;;;5015165;28;19925;-89
2022/12/25 12:21:26;;;;;;;;;;;15.60;65.80;;;;;;5011717;28;20257;-88
2022/12/25 12:24:04;;;;;;;;;;;15.60;65.70;;;;;;5013067;28;19971;-87
2022/12/25 12:26:33;;;;;;;;;;;15.70;65.70;;;;;;5013694;28;20433;-91
2022/12/25 12:29:00;;;;;;;;;;;15.70;65.70;;;;;;5012128;28;20280;-92
2022/12/25 12:31:40;;;;;;;;;;;15.60;65.60;;;;;;5011982;28;20286;-90
2022/12/25 12:34:06;;;;;;;;;;;15.70;65.80;;;;;;5012144;28;20008;-88
2022/12/25 12:36:32;;;;;;;;;;;15.70;66.00;;;;;;5012549;28;19952;-89
2022/12/25 12:38:57;;;;;;;;;;;15.70;65.80;;;;;;5011625;28;19928;-88
2022/12/25 12:41:37;;;;;;;;;;;15.70;65.60;;;;;;5011510;28;19909;-92
2022/12/25 12:44:03;;;;;;;;;;;15.50;65.30;;;;;;5013818;28;20016;-92
2022/12/25 12:46:31;;;;;;;;;;;15.50;65.10;;;;;;5012253;28;19910;-91
2022/12/25 12:49:09;;;;;;;;;;;15.40;65.30;;;;;;5011852;28;20308;-88
2022/12/25 12:51:35;;;;;;;;;;;15.40;65.30;;;;;;5015366;28;19917;-91
2022/12/25 12:54:13;;;;;;;;;;;15.40;65.40;;;;;;5013044;28;19976;-91
2022/12/25 12:56:38;;;;;;;;;;;15.30;65.50;;;;;;5010921;28;20066;-91
2022/12/25 12:59:04;;;;;;;;;;;15.30;65.60;;;;;;5012590;28;19948;-88
2022/12/25 13:01:29;;;;;;;;;;;15.20;65.50;;;;;;5011250;28;19914;-90
2022/12/25 13:04:13;;;;;;;;;;;15.30;65.50;;;;;;5013449;28;19914;-88
2022/12/25 13:06:47;;;;;;;;;;;15.20;65.50;;;;;;5012682;28;20348;-91
2022/12/25 13:09:31;;;;;;;;;;;15.20;65.60;;;;;;5013201;28;20518;-88
2022/12/25 13:11:56;;;;;;;;;;;15.20;65.60;;;;;;5012708;28;19926;-88
2022/12/25 13:14:23;;;;;;;;;;;15.20;65.70;;;;;;5012518;28;19939;-91
2022/12/25 13:16:50;;;;;;;;;;;15.20;65.70;;;;;;5012450;28;19920;-90
2022/12/25 13:19:24;;;;;;;;;;;15.20;65.70;;;;;;5012014;28;19922;-91
2022/12/25 13:22:00;;;;;;;;;;;15.20;65.80;;;;;;5011715;28;19920;-92
2022/12/25 13:24:27;;;;;;;;;;;15.20;65.60;;;;;;5014731;28;19914;-91
2022/12/25 13:26:52;;;;;;;;;;;15.20;65.60;;;;;;5011634;28;20349;-89
2022/12/25 13:29:32;;;;;;;;;;;15.20;65.60;;;;;;5012548;28;20017;-88
2022/12/25 13:31:58;;;;;;;;;;;15.10;65.50;;;;;;5013136;28;20372;-87
2022/12/25 13:34:30;;;;;;;;;;;15.10;65.40;;;;;;5013432;28;20352;-89
2022/12/25 13:36:59;;;;;;;;;;;15.10;65.50;;;;;;5011175;28;19980;-87
2022/12/25 13:39:25;;;;;;;;;;;15.00;65.60;;;;;;5012804;28;19914;-90
2022/12/25 13:42:10;;;;;;;;;;;15.00;65.60;;;;;;5012423;28;19920;-90
2022/12/25 13:44:38;;;;;;;;;;;15.00;65.60;;;;;;5012736;28;19913;-88
2022/12/25 13:47:18;;;;;;;;;;;15.00;65.60;;;;;;5012687;28;19921;-87
2022/12/25 13:49:44;;;;;;;;;;;15.10;65.80;;;;;;5014505;28;20261;-91
2022/12/25 13:52:11;;;;;;;;;;;15.00;65.80;;;;;;5015948;28;19921;-90
2022/12/25 13:54:36;;;;;;;;;;;15.10;65.80;;;;;;5016080;28;19914;-88
2022/12/25 13:57:06;;;;;;;;;;;15.10;65.80;;;;;;5015635;28;19917;-88
2022/12/25 13:59:32;;;;;;;;;;;15.20;65.70;;;;;;5014511;28;19913;-92
2022/12/25 14:01:58;;;;;;;;;;;15.20;65.70;;;;;;5014914;28;19917;-88
2022/12/25 14:04:24;;;;;;;;;;;15.20;65.70;;;;;;5016315;28;20436;-89
2022/12/25 14:06:50;;;;;;;;;;;15.20;65.70;;;;;;5014254;28;20040;-88
2022/12/25 14:09:15;;;;;;;;;;;15.20;65.60;;;;;;5014560;28;19995;-91
2022/12/25 14:11:44;;;;;;;;;;;15.20;65.60;;;;;;5014072;28;19983;-91
2022/12/25 14:14:17;;;;;;;;;;;15.20;65.70;;;;;;5015513;28;19913;-88
2022/12/25 14:16:44;;;;;;;;;;;15.20;65.70;;;;;;5015564;28;19914;-88
2022/12/25 14:19:21;;;;;;;;;;;15.20;65.70;;;;;;5013949;28;20357;-90
2022/12/25 14:21:51;;;;;;;;;;;15.20;65.70;;;;;;5013614;28;19914;-88
2022/12/25 14:24:18;;;;;;;;;;;15.20;65.70;;;;;;5014835;28;20012;-90
2022/12/25 14:26:43;;;;;;;;;;;15.20;65.60;;;;;;5015249;28;19920;-91
2022/12/25 14:29:10;;;;;;;;;;;15.20;65.60;;;;;;5013858;28;19913;-89
2022/12/25 14:31:37;;;;;;;;;;;15.30;65.60;;;;;;5013645;28;20380;-90
2022/12/25 14:34:04;;;;;;;;;;;15.30;65.60;;;;;;5015145;28;19918;-90
2022/12/25 14:36:30;;;;;;;;;;;15.40;65.60;;;;;;5013461;28;19956;-90
2022/12/25 14:38:56;;;;;;;;;;;15.40;65.50;;;;;;5013608;28;19920;-88
2022/12/25 14:41:33;;;;;;;;;;;15.40;65.40;;;;;;5013003;28;19914;-90
2022/12/25 14:43:59;;;;;;;;;;;15.50;65.30;;;;;;5015995;28;19916;-91
2022/12/25 14:46:26;;;;;;;;;;;15.50;65.20;;;;;;5014719;28;20504;-88
2022/12/25 14:48:58;;;;;;;;;;;15.50;65.30;;;;;;5015332;28;19928;-89
2022/12/25 14:51:24;;;;;;;;;;;15.40;65.30;;;;;;5016238;28;19925;-89
2022/12/25 14:53:52;;;;;;;;;;;15.50;65.40;;;;;;5016862;28;19910;-89
2022/12/25 14:56:18;;;;;;;;;;;15.50;65.30;;;;;;5013518;28;19921;-88
2022/12/25 14:58:47;;;;;;;;;;;15.50;65.40;;;;;;5014877;28;19964;-89
2022/12/25 15:01:20;;;;;;;;;;;15.50;65.40;;;;;;5014532;28;19920;-92
2022/12/25 15:03:47;;;;;;;;;;;15.50;65.40;;;;;;5013971;28;19910;-88
2022/12/25 15:06:23;;;;;;;;;;;15.60;65.30;;;;;;5012968;28;19920;-92
2022/12/25 15:08:59;;;;;;;;;;;15.60;65.20;;;;;;5013174;28;19963;-89
2022/12/25 15:11:25;;;;;;;;;;;15.60;65.30;;;;;;5015215;28;20031;-92
2022/12/25 15:13:50;;;;;;;;;;;15.60;65.30;;;;;;5015075;28;21405;-92
2022/12/25 15:16:21;;;;;;;;;;;15.60;65.40;;;;;;5012952;28;20004;-92
2022/12/25 15:18:47;;;;;;;;;;;15.70;65.30;;;;;;5013705;28;19914;-92
2022/12/25 15:21:15;;;;;;;;;;;15.60;65.20;;;;;;5013610;28;19968;-90
2022/12/25 15:23:40;;;;;;;;;;;15.70;65.20;;;;;;5014199;28;19909;-88
2022/12/25 15:26:08;;;;;;;;;;;15.70;65.30;;;;;;5013570;28;20346;-88
2022/12/25 15:28:34;;;;;;;;;;;15.70;65.30;;;;;;5014363;28;19968;-91
2022/12/25 15:30:59;;;;;;;;;;;15.70;65.30;;;;;;5012406;28;20413;-88
2022/12/25 15:33:25;;;;;;;;;;;15.70;65.10;;;;;;5012881;28;19917;-91
2022/12/25 15:35:50;;;;;;;;;;;15.70;64.90;;;;;;5015423;28;19924;-88
2022/12/25 15:38:16;;;;;;;;;;;15.60;65.00;;;;;;5012090;28;20288;-91
2022/12/25 15:40:41;;;;;;;;;;;15.70;65.30;;;;;;5015466;28;19910;-90
2022/12/25 15:43:08;;;;;;;;;;;15.70;65.30;;;;;;5012301;28;19984;-88
2022/12/25 15:45:34;;;;;;;;;;;15.70;65.20;;;;;;5015941;28;20335;-90
2022/12/25 15:47:59;;;;;;;;;;;15.60;65.10;;;;;;5015177;28;19941;-90
2022/12/25 15:50:25;;;;;;;;;;;15.60;65.40;;;;;;5013434;28;19923;-88
2022/12/25 15:52:50;;;;;;;;;;;15.70;65.40;;;;;;5012651;28;19976;-87
2022/12/25 15:55:16;;;;;;;;;;;15.70;65.30;;;;;;5012138;28;20283;-90
2022/12/25 15:57:42;;;;;;;;;;;15.60;65.20;;;;;;5013264;28;20346;-90
2022/12/25 16:00:13;;;;;;;;;;;15.60;65.30;;;;;;5012176;28;20376;-88
2022/12/25 16:02:38;;;;;;;;;;;15.50;65.30;;;;;;5011807;28;19972;-90
2022/12/25 16:05:04;;;;;;;;;;;15.50;65.60;;;;;;5011714;28;19964;-88